Ellsworth, KS (67439)

6:23 AM CST on February 26, 2017 (GMT -0600)
MK9K7 | | Change Station

Elev 1613 ft 38.75 °N, 98.23 °W | Updated 17 minutes ago

Partly Cloudy
Partly Cloudy
27.0 °F
Feels Like 19 °F
N
7.0
Wind Variable Wind from NNE

Today
High -- | Low -- °F
--% Chance of Precip.
Yesterday
High -- | Low -- °F
Precip. -- in
Pressure 29.95 in
Visibility 3.0 miles
Clouds Few 200 ft
Mostly Cloudy 7000 ft
Windchill 19 °F
Dew Point 23 °F
Humidity 86%
Rainfall 0.01 in
Snow Depth Not available.
7:09 AM 6:22 PM
Waning Crescent, 0% visible
SPECI KSLN 261203Z AUTO 36005KT 3SM BR FEW002 BKN070 01/M01 A2995 RMK AO2 T00061006
Pressure 29.95 in
Visibility 3.0 miles
Clouds Few 200 ft
Mostly Cloudy 7000 ft
Windchill 19 °F
Dew Point 23 °F
Humidity 86%
Rainfall 0.01 in
Snow Depth Not available.
7:09 AM 6:22 PM
Waning Crescent, 0% visible
SPECI KSLN 261203Z AUTO 36005KT 3SM BR FEW002 BKN070 01/M01 A2995 RMK AO2 T00061006

Get Your Daily Forecast Email!

Thanks for signing up!

Be on the lookout for a verification email in your inbox.

You'll start receiving the daily forecast at 8 AM.

×

10-Day Weather Forecast

Almanac

Astronomy

Feb. 26, 2017 Rise Set
Actual Time
Civil Twilight
Nautical Twilight
Astronomical Twilight
Moon
Length of Visible Light
Length of Day
Tomorrow will be .
, % of the Moon is Illuminated

Today's Extremes

State Highs State Lows

Community

WunderPhotos

Upload Photos

1,962,540 photos uploaded!

WunderBlog® & News

Nearby

Air Quality

  Air Quality AQ Index Pollutant
Not available.

Snow Depth

Station Depth Elevation

Earthquake Activity

City Distance Mag. Time & Date
Minimum magnitude displayed is 2.5.

Coastal Water Temperatures

Place Temperature

Stations

Nearby Weather Stations

Station Location Temp. Windchill Dew Point Humidity Wind Precip. Elev Updated Type
                   

Watches & Warnings

There are currently no watches in effect.